Time;durP1;ratioP1;P1;durP2;ratioP2;P2;SDS_P1;SDS_P2;PMS_P1;PMS_P2;Temp;Humidity;BMP_temperature;BMP_pressure;BME280_temperature;BME280_humidity;BME280_pressure;Samples;Min_cycle;Max_cycle;Signal;HPM_P1;HPM_P2
2023/10/20 00:00:15;;;;;;;19.23;17.53;;;8.20;99.90;;;;;;5055553;28;20461;-70
2023/10/20 00:02:43;;;;;;;18.93;17.33;;;8.20;99.90;;;;;;5054273;28;20467;-70
2023/10/20 00:05:12;;;;;;;19.33;17.73;;;8.20;99.90;;;;;;5055554;28;20525;-70
2023/10/20 00:07:40;;;;;;;18.60;17.00;;;8.20;99.90;;;;;;5055114;28;20457;-71
2023/10/20 00:10:11;;;;;;;19.67;18.03;;;8.20;99.90;;;;;;5056353;28;20835;-70
2023/10/20 00:12:40;;;;;;;19.83;18.07;;;8.20;99.90;;;;;;5055744;28;20425;-70
2023/10/20 00:15:13;;;;;;;19.73;17.90;;;8.20;99.90;;;;;;5055453;28;20438;-70
2023/10/20 00:17:42;;;;;;;19.00;17.30;;;8.20;99.90;;;;;;5055574;28;20905;-70
2023/10/20 00:20:11;;;;;;;18.73;17.03;;;8.20;99.90;;;;;;5055191;28;20437;-70
2023/10/20 00:22:40;;;;;;;19.47;17.67;;;8.30;99.90;;;;;;5055339;28;20438;-70
2023/10/20 00:25:11;;;;;;;19.57;17.50;;;8.20;99.90;;;;;;5053542;28;20507;-70
2023/10/20 00:27:41;;;;;;;19.40;17.70;;;8.20;99.90;;;;;;5055026;28;20454;-70
2023/10/20 00:30:11;;;;;;;18.10;16.53;;;8.20;99.90;;;;;;5053651;28;20513;-70
2023/10/20 00:32:40;;;;;;;20.10;18.20;;;8.20;99.90;;;;;;5053808;28;20495;-70
2023/10/20 00:35:13;;;;;;;18.20;16.70;;;8.30;99.90;;;;;;5055956;28;20513;-70
2023/10/20 00:37:42;;;;;;;19.57;17.80;;;8.30;99.90;;;;;;5053709;28;20532;-70
2023/10/20 00:40:12;;;;;;;17.20;15.70;;;8.30;99.90;;;;;;5053830;28;20450;-70
2023/10/20 00:42:40;;;;;;;18.13;16.43;;;8.20;99.90;;;;;;5054057;28;20532;-70
2023/10/20 00:45:10;;;;;;;19.27;17.57;;;8.20;99.90;;;;;;5055199;28;20480;-70
2023/10/20 00:47:40;;;;;;;18.37;16.80;;;8.30;99.90;;;;;;5055338;28;20480;-70
2023/10/20 00:50:11;;;;;;;19.17;17.57;;;8.30;99.90;;;;;;5054081;28;20454;-70
2023/10/20 00:52:42;;;;;;;20.03;18.33;;;8.30;99.90;;;;;;5055130;28;20441;-70
2023/10/20 00:55:13;;;;;;;19.87;18.17;;;8.30;99.90;;;;;;5054796;28;20853;-70
2023/10/20 00:57:43;;;;;;;19.60;17.80;;;8.30;99.90;;;;;;5054825;28;20500;-70
2023/10/20 01:00:13;;;;;;;19.63;17.97;;;8.30;99.90;;;;;;5055025;28;20438;-70
2023/10/20 01:02:41;;;;;;;21.27;19.37;;;8.30;99.90;;;;;;5053854;28;20955;-70
2023/10/20 01:05:14;;;;;;;19.23;17.60;;;8.30;99.90;;;;;;5053408;28;20906;-70
2023/10/20 01:07:43;;;;;;;20.17;18.37;;;8.20;99.90;;;;;;5052077;28;20982;-71
2023/10/20 01:10:13;;;;;;;18.43;16.73;;;8.20;99.90;;;;;;5052125;28;20438;-70
2023/10/20 01:12:41;;;;;;;19.63;17.93;;;8.20;99.90;;;;;;5054108;28;20499;-70
2023/10/20 01:15:11;;;;;;;19.07;17.40;;;8.20;99.90;;;;;;5052540;28;20474;-70
2023/10/20 01:17:40;;;;;;;19.07;17.37;;;8.20;99.90;;;;;;5053741;28;20458;-70
2023/10/20 01:20:09;;;;;;;19.27;17.60;;;8.20;99.90;;;;;;5052633;28;20446;-70
2023/10/20 01:22:38;;;;;;;17.80;16.20;;;8.20;99.90;;;;;;5052425;28;20800;-70
2023/10/20 01:25:08;;;;;;;18.27;16.57;;;8.20;99.90;;;;;;5053727;28;21060;-70
2023/10/20 01:27:36;;;;;;;16.97;15.47;;;8.20;99.90;;;;;;5054082;28;20798;-70
2023/10/20 01:30:05;;;;;;;17.30;15.77;;;8.20;99.90;;;;;;5052630;28;20454;-70
2023/10/20 01:32:33;;;;;;;19.10;17.40;;;8.20;99.90;;;;;;5052704;28;20536;-70
2023/10/20 01:35:01;;;;;;;16.90;15.53;;;8.20;99.90;;;;;;5053774;28;20442;-70
2023/10/20 01:37:29;;;;;;;18.37;16.87;;;8.20;99.90;;;;;;5052310;28;20469;-70
2023/10/20 01:39:58;;;;;;;16.63;15.27;;;8.20;99.90;;;;;;5054035;28;20523;-71
2023/10/20 01:42:28;;;;;;;17.50;16.10;;;8.20;99.90;;;;;;5052364;28;20537;-71
2023/10/20 01:44:56;;;;;;;16.50;15.10;;;8.20;99.90;;;;;;5052415;28;20527;-70
2023/10/20 01:47:24;;;;;;;17.27;15.83;;;8.10;99.90;;;;;;5052649;28;20496;-70
2023/10/20 01:49:53;;;;;;;17.90;16.40;;;8.10;99.90;;;;;;5052453;28;20450;-71
2023/10/20 01:52:21;;;;;;;15.53;14.23;;;8.10;99.90;;;;;;5052473;28;20493;-70
2023/10/20 01:54:49;;;;;;;17.83;16.33;;;8.10;99.90;;;;;;5052404;28;20446;-70
2023/10/20 01:57:17;;;;;;;16.83;15.43;;;8.10;99.90;;;;;;5052306;28;20500;-71
2023/10/20 01:59:48;;;;;;;17.37;15.90;;;8.10;99.90;;;;;;5052395;28;21176;-71
2023/10/20 02:02:16;;;;;;;16.70;15.37;;;8.10;99.90;;;;;;5052249;28;20938;-71
2023/10/20 02:04:44;;;;;;;17.47;15.73;;;8.10;99.90;;;;;;5052380;28;20564;-71
2023/10/20 02:07:13;;;;;;;16.73;15.33;;;8.10;99.90;;;;;;5053848;28;20455;-70
2023/10/20 02:09:41;;;;;;;16.07;14.67;;;8.10;99.90;;;;;;5053608;28;21021;-70
2023/10/20 02:12:10;;;;;;;15.00;13.80;;;8.10;99.90;;;;;;5052196;28;20457;-70
2023/10/20 02:14:38;;;;;;;13.67;12.57;;;8.10;99.90;;;;;;5053594;28;20538;-70
2023/10/20 02:17:08;;;;;;;14.73;13.43;;;8.10;99.90;;;;;;5053537;28;20503;-71
2023/10/20 02:19:36;;;;;;;13.67;12.57;;;8.10;99.90;;;;;;5052799;28;20508;-70
2023/10/20 02:22:04;;;;;;;13.87;12.77;;;8.10;99.90;;;;;;5056313;28;20457;-70
2023/10/20 02:24:32;;;;;;;15.13;13.80;;;8.10;99.90;;;;;;5057388;28;20475;-71
2023/10/20 02:27:01;;;;;;;14.30;13.10;;;8.10;99.90;;;;;;5056997;28;20453;-71
2023/10/20 02:29:30;;;;;;;13.00;12.00;;;8.10;99.90;;;;;;5055907;28;20976;-70
2023/10/20 02:31:58;;;;;;;14.00;12.80;;;8.10;99.90;;;;;;5055799;28;20450;-70
2023/10/20 02:34:28;;;;;;;13.23;12.23;;;8.10;99.90;;;;;;5056019;28;20449;-70
2023/10/20 02:36:56;;;;;;;13.43;12.30;;;8.10;99.90;;;;;;5055853;28;20469;-70
2023/10/20 02:39:24;;;;;;;13.10;12.00;;;8.10;99.90;;;;;;5056832;28;20446;-71
2023/10/20 02:41:53;;;;;;;13.40;12.30;;;8.10;99.90;;;;;;5057226;28;20801;-70
2023/10/20 02:44:22;;;;;;;13.13;12.13;;;8.10;99.90;;;;;;5055348;28;20518;-71
2023/10/20 02:46:51;;;;;;;13.03;11.93;;;8.10;99.90;;;;;;5055627;28;20994;-70
2023/10/20 02:49:20;;;;;;;13.63;12.40;;;8.10;99.90;;;;;;5056080;28;20446;-70
2023/10/20 02:51:49;;;;;;;11.40;10.50;;;8.10;99.90;;;;;;5056761;28;20459;-70
2023/10/20 02:54:17;;;;;;;11.63;10.63;;;8.10;99.90;;;;;;5055712;28;20942;-70
2023/10/20 02:56:45;;;;;;;10.30;9.50;;;8.10;99.90;;;;;;5055355;28;20453;-70
2023/10/20 02:59:13;;;;;;;10.80;10.00;;;8.10;99.90;;;;;;5056286;28;20536;-70
2023/10/20 03:01:42;;;;;;;10.47;9.70;;;8.10;99.90;;;;;;5054790;28;20488;-70
2023/10/20 03:04:11;;;;;;;10.37;9.47;;;8.10;99.90;;;;;;5056109;28;20470;-70
2023/10/20 03:06:39;;;;;;;10.80;9.90;;;8.10;99.90;;;;;;5056034;28;20484;-70
2023/10/20 03:09:10;;;;;;;9.97;9.20;;;8.10;99.90;;;;;;5054717;28;20460;-70
2023/10/20 03:11:38;;;;;;;9.87;9.17;;;8.10;99.90;;;;;;5056304;28;20513;-70
2023/10/20 03:14:06;;;;;;;9.60;8.80;;;8.10;99.90;;;;;;5054726;28;20950;-70
2023/10/20 03:16:42;;;;;;;8.90;8.20;;;8.10;99.90;;;;;;5056290;28;20830;-71
2023/10/20 03:19:11;;;;;;;8.93;8.23;;;8.10;99.90;;;;;;5056016;28;20509;-70
2023/10/20 03:21:39;;;;;;;9.47;8.77;;;8.10;99.90;;;;;;5055768;28;20956;-70
2023/10/20 03:24:10;;;;;;;8.20;7.60;;;8.10;99.90;;;;;;5055893;28;20430;-70
2023/10/20 03:26:39;;;;;;;8.37;7.70;;;8.10;99.90;;;;;;5055729;28;20485;-70
2023/10/20 03:29:07;;;;;;;8.30;7.70;;;8.10;99.90;;;;;;5054526;28;20539;-70
2023/10/20 03:31:35;;;;;;;8.40;7.73;;;8.10;99.90;;;;;;5054879;28;20528;-70
2023/10/20 03:34:04;;;;;;;8.20;7.50;;;8.10;99.90;;;;;;5054202;28;20453;-70
2023/10/20 03:36:32;;;;;;;8.10;7.50;;;8.10;99.90;;;;;;5054113;28;20515;-70
2023/10/20 03:39:00;;;;;;;8.10;7.50;;;8.10;99.90;;;;;;5055576;28;20437;-70
2023/10/20 03:41:29;;;;;;;7.33;6.83;;;8.10;99.90;;;;;;5054494;28;20444;-70
2023/10/20 03:43:58;;;;;;;7.30;6.70;;;8.10;99.90;;;;;;5054572;28;20461;-70
2023/10/20 03:46:26;;;;;;;7.10;6.50;;;8.10;99.90;;;;;;5054086;28;20857;-70
2023/10/20 03:48:54;;;;;;;6.93;6.30;;;8.10;99.90;;;;;;5054166;28;20957;-70
2023/10/20 03:51:23;;;;;;;7.00;6.40;;;8.20;99.90;;;;;;5055371;28;20489;-70
2023/10/20 03:53:55;;;;;;;6.03;5.63;;;8.10;99.90;;;;;;5054317;28;20444;-70
2023/10/20 03:56:23;;;;;;;6.20;5.70;;;8.10;99.90;;;;;;5053808;28;20516;-70
2023/10/20 03:58:53;;;;;;;6.20;5.70;;;8.20;99.90;;;;;;5055212;28;20516;-70
2023/10/20 04:01:21;;;;;;;6.20;5.30;;;8.20;99.90;;;;;;5053876;28;20545;-71
2023/10/20 04:03:50;;;;;;;5.13;4.83;;;8.20;99.90;;;;;;5055385;28;20500;-71
2023/10/20 04:06:20;;;;;;;5.60;4.73;;;8.20;99.90;;;;;;5055421;28;20458;-70
2023/10/20 04:08:48;;;;;;;5.17;4.70;;;8.20;99.90;;;;;;5055261;28;20481;-70
2023/10/20 04:11:17;;;;;;;5.00;4.63;;;8.20;99.90;;;;;;5054899;28;20438;-70
2023/10/20 04:13:45;;;;;;;4.67;4.33;;;8.20;99.90;;;;;;5055146;28;20773;-71
2023/10/20 04:16:16;;;;;;;4.50;4.20;;;8.20;99.90;;;;;;5054632;28;20434;-71
2023/10/20 04:18:46;;;;;;;4.87;4.47;;;8.20;99.90;;;;;;5054666;28;20947;-70
2023/10/20 04:21:15;;;;;;;4.63;4.23;;;8.20;99.90;;;;;;5054593;28;20966;-70
2023/10/20 04:23:44;;;;;;;4.30;3.90;;;8.20;99.90;;;;;;5054333;28;20437;-70
2023/10/20 04:26:20;;;;;;;4.27;3.97;;;8.20;99.90;;;;;;5054133;28;20497;-70
2023/10/20 04:29:02;;;;;;;4.50;4.17;;;8.20;99.90;;;;;;5054491;28;20422;-71
2023/10/20 04:43:05;;;;;;;4.93;4.37;;;8.20;99.90;;;;;;5054337;28;20433;-68
2023/10/20 04:48:31;;;;;;;5.90;5.40;;;8.20;99.90;;;;;;5053318;28;20497;-68
2023/10/20 04:51:18;;;;;;;4.10;3.80;;;8.30;99.90;;;;;;5053907;28;20423;-68
2023/10/20 04:53:52;;;;;;;4.87;4.47;;;8.30;99.90;;;;;;5053793;28;20419;-68
2023/10/20 04:56:37;;;;;;;4.67;4.30;;;8.20;99.90;;;;;;5052421;28;20439;-68
2023/10/20 04:59:09;;;;;;;4.30;3.90;;;8.30;99.90;;;;;;5052532;28;20866;-68
2023/10/20 05:01:47;;;;;;;7.00;3.90;;;8.30;99.90;;;;;;5053793;28;20441;-69
2023/10/20 05:04:21;;;;;;;4.40;4.00;;;8.30;99.90;;;;;;5053922;28;20912;-68
2023/10/20 05:06:58;;;;;;;4.10;3.70;;;8.30;99.90;;;;;;5054019;28;21009;-69
2023/10/20 05:09:26;;;;;;;4.10;3.80;;;8.30;99.90;;;;;;5053480;28;20545;-69
2023/10/20 05:11:55;;;;;;;3.63;3.33;;;8.30;99.90;;;;;;5053905;28;20923;-68
2023/10/20 05:14:23;;;;;;;3.60;3.30;;;8.30;99.90;;;;;;5053735;28;20797;-68
2023/10/20 05:16:53;;;;;;;4.33;3.57;;;8.30;99.90;;;;;;5053627;28;20457;-68
2023/10/20 05:19:23;;;;;;;4.20;3.73;;;8.30;99.90;;;;;;5054081;28;20438;-69
2023/10/20 05:21:51;;;;;;;3.47;3.17;;;8.30;99.90;;;;;;5053682;28;20418;-68
2023/10/20 05:24:19;;;;;;;3.83;3.50;;;8.30;99.90;;;;;;5053341;28;20441;-68
2023/10/20 05:26:47;;;;;;;4.30;3.90;;;8.30;99.90;;;;;;5053243;28;20473;-68
2023/10/20 05:29:16;;;;;;;4.20;3.30;;;8.30;99.90;;;;;;5053536;28;20851;-68
2023/10/20 05:31:44;;;;;;;4.53;3.50;;;8.30;99.90;;;;;;5053584;28;20445;-68
2023/10/20 05:34:13;;;;;;;4.10;3.70;;;8.30;99.90;;;;;;5053451;28;20492;-68
2023/10/20 05:36:44;;;;;;;4.00;3.70;;;8.20;99.90;;;;;;5053191;28;20466;-68
2023/10/20 05:39:13;;;;;;;4.20;3.50;;;8.20;99.90;;;;;;5051899;28;20872;-68
2023/10/20 05:41:44;;;;;;;4.00;3.50;;;8.20;99.90;;;;;;5053961;28;20466;-67
2023/10/20 05:44:14;;;;;;;3.20;2.90;;;8.20;99.90;;;;;;5054138;28;20446;-68
2023/10/20 05:46:42;;;;;;;3.47;3.17;;;8.20;99.90;;;;;;5053814;28;20476;-68
2023/10/20 05:49:10;;;;;;;3.30;3.00;;;8.20;99.90;;;;;;5053349;28;20440;-68
2023/10/20 05:51:38;;;;;;;3.30;3.00;;;8.20;99.90;;;;;;5053307;28;20483;-68
2023/10/20 05:54:08;;;;;;;3.40;3.10;;;8.20;99.90;;;;;;5053056;28;20434;-68
2023/10/20 05:56:36;;;;;;;4.13;3.53;;;8.20;99.90;;;;;;5057104;28;20480;-68
2023/10/20 05:59:04;;;;;;;3.03;2.73;;;8.20;99.90;;;;;;5057131;28;20469;-68
2023/10/20 06:01:33;;;;;;;3.83;2.60;;;8.20;99.90;;;;;;5055745;28;20456;-68
2023/10/20 06:04:01;;;;;;;3.97;2.87;;;8.20;99.90;;;;;;5057459;28;20453;-68
2023/10/20 06:06:31;;;;;;;3.70;3.40;;;8.20;99.90;;;;;;5055725;28;20477;-69
2023/10/20 06:08:59;;;;;;;3.43;3.13;;;8.20;99.90;;;;;;5056952;28;20437;-68
2023/10/20 06:11:29;;;;;;;4.70;3.23;;;8.20;99.90;;;;;;5055591;28;20552;-68
2023/10/20 06:13:57;;;;;;;2.90;2.70;;;8.20;99.90;;;;;;5056818;28;20441;-68
2023/10/20 06:16:26;;;;;;;3.60;3.30;;;8.20;99.90;;;;;;5056658;28;20453;-68
2023/10/20 06:18:55;;;;;;;4.13;3.73;;;8.10;99.90;;;;;;5057000;28;20514;-68
2023/10/20 06:21:23;;;;;;;3.83;3.03;;;8.10;99.90;;;;;;5057266;28;20437;-69
2023/10/20 06:23:51;;;;;;;3.50;3.20;;;8.10;99.90;;;;;;5056805;28;20444;-68
2023/10/20 06:26:20;;;;;;;3.37;3.07;;;8.10;99.90;;;;;;5056483;28;20464;-69
2023/10/20 06:28:49;;;;;;;3.77;3.00;;;8.10;99.90;;;;;;5056632;28;20436;-68
2023/10/20 06:31:36;;;;;;;4.40;3.90;;;8.10;99.90;;;;;;5056731;28;20855;-68
2023/10/20 06:34:17;;;;;;;3.40;3.10;;;8.10;99.90;;;;;;5056666;28;20425;-68
2023/10/20 06:36:48;;;;;;;3.83;3.43;;;8.10;99.90;;;;;;5057086;28;20822;-68
2023/10/20 06:39:18;;;;;;;4.13;3.40;;;8.10;99.90;;;;;;5056373;28;20415;-68
2023/10/20 06:41:48;;;;;;;4.50;4.07;;;8.10;99.90;;;;;;5056535;28;20426;-68
2023/10/20 06:44:21;;;;;;;4.10;3.70;;;8.00;99.90;;;;;;5055037;28;21009;-68
2023/10/20 06:46:51;;;;;;;4.60;3.90;;;8.00;99.90;;;;;;5056644;28;20992;-68
2023/10/20 06:49:19;;;;;;;4.57;4.17;;;8.00;99.90;;;;;;5056707;28;20971;-68
2023/10/20 06:52:03;;;;;;;4.43;3.93;;;8.00;99.90;;;;;;5055151;28;20433;-68
2023/10/20 06:54:32;;;;;;;3.90;3.50;;;8.00;99.90;;;;;;5054922;28;20958;-68
2023/10/20 06:57:00;;;;;;;4.00;3.70;;;8.00;99.90;;;;;;5056222;28;20450;-68
2023/10/20 06:59:30;;;;;;;4.07;3.67;;;7.90;99.90;;;;;;5056074;28;20442;-68
2023/10/20 07:02:00;;;;;;;4.30;3.90;;;7.90;99.90;;;;;;5056370;28;20483;-68
2023/10/20 07:04:29;;;;;;;4.77;4.37;;;7.90;99.90;;;;;;5056181;28;20513;-68
2023/10/20 07:06:58;;;;;;;5.03;4.53;;;7.90;99.90;;;;;;5053391;28;21032;-68
2023/10/20 07:09:26;;;;;;;4.93;4.43;;;7.90;99.90;;;;;;5055768;28;20487;-68
2023/10/20 07:11:54;;;;;;;4.87;4.20;;;7.80;99.90;;;;;;5055765;28;20436;-68
2023/10/20 07:14:22;;;;;;;4.77;4.37;;;7.90;99.90;;;;;;5054568;28;20446;-68
2023/10/20 07:16:52;;;;;;;4.40;3.97;;;7.80;99.90;;;;;;5055598;28;20508;-68
2023/10/20 07:19:20;;;;;;;4.73;4.30;;;7.80;99.90;;;;;;5055889;28;20437;-68
2023/10/20 07:21:50;;;;;;;4.93;4.03;;;7.80;99.90;;;;;;5055583;28;20805;-68
2023/10/20 07:24:18;;;;;;;5.00;4.50;;;7.80;99.90;;;;;;5055583;28;20436;-68
2023/10/20 07:26:46;;;;;;;4.30;3.90;;;7.80;99.90;;;;;;5055489;28;20505;-68
2023/10/20 07:29:14;;;;;;;3.73;3.43;;;7.80;99.90;;;;;;5054092;28;20441;-68
2023/10/20 07:31:42;;;;;;;4.73;4.17;;;7.80;99.90;;;;;;5055950;28;20438;-68
2023/10/20 07:34:12;;;;;;;4.60;4.17;;;7.80;99.90;;;;;;5055428;28;20807;-70
2023/10/20 07:36:41;;;;;;;4.03;3.73;;;7.70;99.90;;;;;;5055548;28;20527;-68
2023/10/20 07:39:12;;;;;;;4.80;4.10;;;7.80;99.90;;;;;;5055531;28;20527;-68
2023/10/20 07:41:42;;;;;;;4.77;3.73;;;7.80;99.90;;;;;;5055710;28;20418;-69
2023/10/20 07:44:12;;;;;;;4.03;3.63;;;7.80;99.90;;;;;;5055188;28;20958;-69
2023/10/20 07:46:41;;;;;;;4.17;3.60;;;7.70;99.90;;;;;;5055000;28;20474;-69
2023/10/20 07:49:11;;;;;;;3.93;3.53;;;7.70;99.90;;;;;;5055063;28;20476;-69
2023/10/20 07:51:40;;;;;;;4.40;4.00;;;7.70;99.90;;;;;;5055318;28;20851;-69
2023/10/20 07:54:10;;;;;;;4.40;4.00;;;7.70;99.90;;;;;;5055040;28;20450;-68
2023/10/20 07:56:39;;;;;;;4.13;3.67;;;7.70;99.90;;;;;;5056171;28;20491;-69
2023/10/20 07:59:07;;;;;;;4.60;4.13;;;7.70;99.90;;;;;;5056332;28;20969;-68
2023/10/20 08:01:36;;;;;;;4.30;3.90;;;7.70;99.90;;;;;;5056973;28;21000;-69
2023/10/20 08:04:04;;;;;;;4.00;3.60;;;7.70;99.90;;;;;;5056031;28;20529;-69
2023/10/20 08:06:34;;;;;;;5.73;3.50;;;7.60;99.90;;;;;;5055368;28;20476;-69
2023/10/20 08:09:04;;;;;;;4.60;4.10;;;7.60;99.90;;;;;;5055402;28;20484;-69
2023/10/20 08:11:32;;;;;;;6.00;4.37;;;7.60;99.90;;;;;;5054277;28;20456;-69
2023/10/20 08:14:00;;;;;;;4.37;3.97;;;7.60;99.90;;;;;;5054596;28;20442;-69
2023/10/20 08:16:28;;;;;;;7.40;4.90;;;7.60;99.90;;;;;;5054636;28;20481;-69
2023/10/20 08:18:56;;;;;;;4.53;4.13;;;7.60;99.90;;;;;;5054276;28;20525;-69
2023/10/20 08:21:29;;;;;;;3.97;3.30;;;7.60;99.90;;;;;;5054682;28;20442;-69
2023/10/20 08:23:59;;;;;;;3.83;3.33;;;7.60;99.90;;;;;;5053861;28;20486;-69
2023/10/20 08:26:27;;;;;;;4.83;4.10;;;7.60;99.90;;;;;;5054345;28;20554;-70
2023/10/20 08:28:55;;;;;;;6.40;4.17;;;7.50;99.90;;;;;;5054806;28;20508;-70
2023/10/20 08:31:23;;;;;;;4.30;3.90;;;7.50;99.90;;;;;;5054302;28;20847;-69
2023/10/20 08:33:52;;;;;;;3.53;3.23;;;7.50;99.90;;;;;;5054546;28;20449;-70
2023/10/20 08:36:21;;;;;;;4.37;3.83;;;7.50;99.90;;;;;;5054766;28;20533;-69
2023/10/20 08:38:51;;;;;;;4.50;3.77;;;7.50;99.90;;;;;;5054886;28;20434;-69
2023/10/20 08:41:22;;;;;;;3.73;3.20;;;7.50;99.90;;;;;;5054471;28;20431;-69
2023/10/20 08:43:52;;;;;;;4.30;3.90;;;7.50;99.90;;;;;;5054950;28;20835;-69
2023/10/20 08:46:22;;;;;;;3.33;3.03;;;7.50;99.90;;;;;;5054390;28;20468;-70
2023/10/20 08:48:51;;;;;;;4.47;3.93;;;7.40;99.90;;;;;;5055196;28;20460;-69
2023/10/20 08:51:19;;;;;;;3.70;3.27;;;7.40;99.90;;;;;;5054634;28;20433;-69
2023/10/20 08:53:47;;;;;;;6.43;3.80;;;7.40;99.90;;;;;;5055005;28;20463;-69
2023/10/20 08:56:16;;;;;;;4.07;3.67;;;7.40;99.90;;;;;;5054601;28;20444;-69
2023/10/20 08:58:49;;;;;;;4.03;3.30;;;7.40;99.90;;;;;;5054628;28;20444;-69
2023/10/20 09:01:18;;;;;;;3.63;3.33;;;7.30;99.90;;;;;;5055278;28;20418;-69
2023/10/20 09:03:49;;;;;;;3.50;3.20;;;7.30;99.90;;;;;;5054326;28;20430;-69
2023/10/20 09:06:18;;;;;;;3.60;3.10;;;7.30;99.90;;;;;;5053115;28;20503;-69
2023/10/20 09:08:49;;;;;;;4.20;3.33;;;7.30;99.90;;;;;;5054208;28;20476;-68
2023/10/20 09:11:19;;;;;;;4.83;3.90;;;7.30;99.90;;;;;;5053067;28;20785;-69
2023/10/20 09:13:49;;;;;;;3.70;3.40;;;7.30;99.90;;;;;;5054783;28;20826;-69
2023/10/20 09:16:17;;;;;;;3.90;3.53;;;7.30;99.90;;;;;;5054655;28;20466;-69
2023/10/20 09:18:46;;;;;;;3.70;3.30;;;7.30;99.90;;;;;;5054197;28;20433;-69
2023/10/20 09:21:16;;;;;;;3.23;2.93;;;7.30;99.90;;;;;;5053878;28;20773;-69
2023/10/20 09:23:55;;;;;;;3.80;3.50;;;7.30;99.90;;;;;;5053669;28;20537;-69
2023/10/20 09:26:23;;;;;;;3.60;3.30;;;7.30;99.90;;;;;;5053850;28;20451;-69
2023/10/20 09:28:54;;;;;;;3.40;3.10;;;7.20;99.90;;;;;;5054644;28;20469;-69
2023/10/20 09:31:25;;;;;;;4.77;3.57;;;7.30;99.90;;;;;;5053677;28;20428;-69
2023/10/20 09:33:53;;;;;;;3.00;2.70;;;7.20;99.90;;;;;;5054673;28;20441;-68
2023/10/20 09:36:23;;;;;;;4.40;3.47;;;7.20;99.90;;;;;;5053939;28;20524;-69
2023/10/20 09:38:52;;;;;;;3.60;3.10;;;7.20;99.90;;;;;;5054081;28;20437;-69
2023/10/20 09:41:23;;;;;;;4.40;3.97;;;7.20;99.90;;;;;;5053810;28;20437;-69
2023/10/20 09:43:53;;;;;;;3.23;2.93;;;7.20;99.90;;;;;;5053621;28;20427;-69
2023/10/20 09:46:38;;;;;;;5.00;3.00;;;7.20;99.90;;;;;;5053384;28;20873;-69
2023/10/20 09:49:14;;;;;;;4.70;3.80;;;7.20;99.90;;;;;;5051760;28;20455;-69
2023/10/20 09:51:45;;;;;;;3.97;3.40;;;7.20;99.90;;;;;;5053615;28;20538;-69
2023/10/20 09:54:16;;;;;;;3.87;3.20;;;7.20;99.90;;;;;;5053323;28;20420;-68
2023/10/20 09:56:46;;;;;;;3.57;3.27;;;7.20;99.90;;;;;;5053003;28;20461;-69
2023/10/20 09:59:20;;;;;;;5.00;3.07;;;7.20;99.90;;;;;;5053356;28;20967;-69
2023/10/20 10:01:48;;;;;;;3.80;3.40;;;7.20;99.90;;;;;;5053049;28;20420;-69
2023/10/20 10:04:25;;;;;;;4.20;3.80;;;7.20;99.90;;;;;;5053050;28;20440;-69
2023/10/20 10:06:53;;;;;;;3.97;3.30;;;7.20;99.90;;;;;;5053181;28;20539;-69
2023/10/20 10:09:22;;;;;;;3.57;3.23;;;7.20;99.90;;;;;;5052764;28;20471;-69
2023/10/20 10:11:55;;;;;;;3.87;3.57;;;7.20;99.90;;;;;;5053129;28;20462;-69
2023/10/20 10:14:26;;;;;;;3.43;3.03;;;7.20;99.90;;;;;;5053158;28;20429;-69
2023/10/20 10:16:56;;;;;;;4.33;3.47;;;7.20;99.90;;;;;;5053252;28;21026;-69
2023/10/20 10:19:28;;;;;;;4.03;3.57;;;7.20;99.90;;;;;;5053155;28;20427;-69
2023/10/20 10:21:57;;;;;;;6.23;3.67;;;7.10;99.90;;;;;;5052914;28;20546;-69
2023/10/20 10:24:26;;;;;;;3.70;3.33;;;7.10;99.90;;;;;;5053358;28;20439;-69
2023/10/20 10:26:57;;;;;;;3.93;3.53;;;7.10;99.90;;;;;;5053060;28;20466;-69
2023/10/20 10:29:49;;;;;;;4.33;3.30;;;7.10;99.90;;;;;;5052857;28;20468;-69
2023/10/20 10:32:18;;;;;;;4.97;4.47;;;7.10;99.90;;;;;;5053306;28;20421;-69
2023/10/20 10:34:51;;;;;;;4.37;3.97;;;7.10;99.90;;;;;;5051502;28;20490;-69
2023/10/20 10:37:32;;;;;;;3.63;3.33;;;7.10;99.90;;;;;;5052853;28;20463;-69
2023/10/20 10:40:09;;;;;;;4.40;4.00;;;7.10;99.90;;;;;;5054457;28;20448;-69
2023/10/20 10:42:42;;;;;;;3.97;3.60;;;7.10;99.90;;;;;;5057905;28;20933;-69
2023/10/20 10:45:21;;;;;;;5.07;4.57;;;7.10;99.90;;;;;;5057527;28;20482;-69
2023/10/20 10:47:50;;;;;;;3.67;3.37;;;7.10;99.90;;;;;;5057429;28;20466;-69
2023/10/20 10:50:21;;;;;;;4.60;3.90;;;7.00;99.90;;;;;;5055154;28;20459;-70
2023/10/20 10:52:49;;;;;;;4.03;3.63;;;7.00;99.90;;;;;;5056536;28;20419;-69
2023/10/20 10:55:20;;;;;;;5.00;4.53;;;7.00;99.90;;;;;;5056380;28;20428;-70
2023/10/20 10:57:48;;;;;;;4.20;3.80;;;7.00;99.90;;;;;;5056066;28;20505;-69
2023/10/20 11:00:19;;;;;;;4.13;3.73;;;7.00;99.90;;;;;;5055019;28;20497;-69
2023/10/20 11:02:47;;;;;;;4.53;3.77;;;7.00;99.90;;;;;;5056046;28;20483;-69
2023/10/20 11:05:17;;;;;;;3.33;2.93;;;7.00;99.90;;;;;;5056083;28;20439;-70
2023/10/20 11:08:01;;;;;;;4.80;3.40;;;7.00;99.90;;;;;;5055802;28;20553;-70
2023/10/20 11:10:30;;;;;;;4.30;3.90;;;7.00;99.90;;;;;;5056369;28;20479;-70
2023/10/20 11:12:59;;;;;;;5.50;4.33;;;7.00;99.90;;;;;;5055725;28;20531;-70
2023/10/20 11:15:30;;;;;;;4.33;3.93;;;7.00;99.90;;;;;;5055941;28;20466;-70
2023/10/20 11:18:00;;;;;;;3.90;3.33;;;7.00;99.90;;;;;;5055741;28;20467;-70
2023/10/20 11:20:29;;;;;;;3.87;3.37;;;7.00;99.90;;;;;;5055945;28;20420;-69
2023/10/20 11:23:00;;;;;;;4.30;3.47;;;7.00;99.90;;;;;;5054595;28;20784;-69
2023/10/20 11:25:30;;;;;;;4.90;4.33;;;7.00;99.90;;;;;;5055651;28;20736;-70
2023/10/20 11:27:58;;;;;;;4.93;4.27;;;7.00;99.90;;;;;;5055503;28;20514;-70
2023/10/20 11:30:31;;;;;;;3.43;3.13;;;7.00;99.90;;;;;;5054430;28;20562;-69
2023/10/20 11:33:00;;;;;;;3.37;2.87;;;7.00;99.90;;;;;;5055741;28;20420;-70
2023/10/20 11:35:28;;;;;;;4.70;3.80;;;6.90;99.90;;;;;;5055918;28;20439;-69
2023/10/20 11:37:58;;;;;;;4.03;3.70;;;6.90;99.90;;;;;;5055300;28;20465;-69
2023/10/20 11:40:27;;;;;;;3.90;3.33;;;6.90;99.90;;;;;;5055517;28;20485;-69
2023/10/20 11:42:55;;;;;;;5.20;4.27;;;6.90;99.90;;;;;;5055080;28;20445;-70
2023/10/20 11:45:24;;;;;;;5.67;4.10;;;7.00;99.90;;;;;;5055230;28;20930;-70
2023/10/20 11:47:53;;;;;;;4.87;4.30;;;6.90;99.90;;;;;;5055156;28;21044;-70
2023/10/20 11:50:23;;;;;;;3.70;3.20;;;6.90;99.90;;;;;;5055194;28;20464;-70
2023/10/20 11:52:52;;;;;;;4.30;3.00;;;6.90;99.90;;;;;;5054381;28;20438;-70
2023/10/20 11:55:20;;;;;;;3.57;3.27;;;6.90;99.90;;;;;;5055230;28;20505;-69
2023/10/20 11:57:48;;;;;;;4.57;3.70;;;6.90;99.90;;;;;;5055166;28;20968;-69
2023/10/20 12:00:17;;;;;;;5.00;4.57;;;6.90;99.90;;;;;;5054839;28;20486;-70
2023/10/20 12:02:45;;;;;;;5.23;4.67;;;6.90;99.90;;;;;;5054917;28;20440;-69
2023/10/20 12:05:15;;;;;;;4.60;3.80;;;6.90;99.90;;;;;;5054728;28;20449;-69
2023/10/20 12:07:43;;;;;;;3.87;3.53;;;6.90;99.90;;;;;;5055097;28;20457;-70
2023/10/20 12:10:12;;;;;;;3.40;3.10;;;6.90;99.90;;;;;;5054739;28;20460;-69
2023/10/20 12:12:40;;;;;;;4.47;3.13;;;6.90;99.90;;;;;;5054585;28;20439;-69
2023/10/20 12:15:09;;;;;;;4.00;3.60;;;6.90;99.90;;;;;;5054573;28;20538;-69
2023/10/20 12:17:39;;;;;;;3.87;3.07;;;6.90;99.90;;;;;;5054429;28;20458;-70
2023/10/20 12:20:09;;;;;;;3.03;2.83;;;6.90;99.90;;;;;;5054432;28;20435;-69
2023/10/20 12:22:38;;;;;;;3.07;2.70;;;6.90;99.90;;;;;;5054439;28;20436;-69
2023/10/20 12:25:08;;;;;;;5.10;3.40;;;6.90;99.90;;;;;;5054373;28;20968;-69
2023/10/20 12:27:37;;;;;;;3.67;3.30;;;6.90;99.90;;;;;;5054269;28;20451;-69
2023/10/20 12:30:09;;;;;;;3.20;2.80;;;6.90;99.90;;;;;;5054542;28;20861;-70
2023/10/20 12:32:37;;;;;;;4.47;4.07;;;6.90;99.90;;;;;;5052985;28;20460;-69
2023/10/20 12:35:06;;;;;;;4.47;3.10;;;6.90;99.90;;;;;;5054340;28;20438;-69
2023/10/20 12:37:35;;;;;;;4.50;2.80;;;6.90;99.90;;;;;;5054287;28;20463;-69
2023/10/20 12:40:05;;;;;;;3.27;2.97;;;6.90;99.90;;;;;;5054296;28;20467;-69
2023/10/20 12:42:33;;;;;;;2.50;2.30;;;6.90;99.90;;;;;;5054381;28;20420;-69
2023/10/20 12:45:04;;;;;;;3.43;3.13;;;6.90;99.90;;;;;;5053980;28;20440;-69
2023/10/20 12:47:32;;;;;;;3.20;2.90;;;6.90;99.90;;;;;;5054292;28;20965;-69
2023/10/20 12:50:01;;;;;;;3.30;3.00;;;6.90;99.90;;;;;;5052594;28;21055;-70
2023/10/20 12:52:29;;;;;;;3.50;3.20;;;6.90;99.90;;;;;;5053829;28;20439;-70
2023/10/20 12:54:57;;;;;;;3.60;2.07;;;6.90;99.90;;;;;;5053768;28;20441;-70
2023/10/20 12:57:26;;;;;;;3.20;2.77;;;6.90;99.90;;;;;;5053802;28;20513;-70
2023/10/20 12:59:55;;;;;;;2.87;1.90;;;6.90;99.90;;;;;;5053749;28;20496;-70
2023/10/20 13:02:23;;;;;;;2.40;2.20;;;6.90;99.90;;;;;;5054021;28;20432;-70
2023/10/20 13:04:52;;;;;;;2.33;2.13;;;6.90;99.90;;;;;;5051755;28;20872;-69
2023/10/20 13:07:20;;;;;;;2.67;2.13;;;6.90;99.90;;;;;;5053794;28;20484;-70
2023/10/20 13:09:49;;;;;;;2.40;2.00;;;6.90;99.90;;;;;;5054054;28;20464;-70
2023/10/20 13:12:17;;;;;;;2.40;2.20;;;6.90;99.90;;;;;;5052324;28;20512;-70
2023/10/20 13:14:46;;;;;;;2.80;2.40;;;6.90;99.90;;;;;;5053751;28;21012;-69
2023/10/20 13:17:15;;;;;;;2.27;1.97;;;6.90;99.90;;;;;;5053412;28;20456;-69
2023/10/20 13:19:43;;;;;;;2.93;2.57;;;6.90;99.90;;;;;;5053767;28;20455;-70